Search for airport 
image banner adimage banner adimage banner ad
image banner ad

03G - Thermal-G

Located in Erie, United States

ICAO - 03G, IATA -

Data provided by Airmate  

General information

Coordinates: N42°1'14" W80°4'15"
Elevation is 1434 feet MSL.
Magnetic variation is -08° East
View others Airports in Pennsylvania

Operational data

Special qualification required
Current time UTC:
Current local time:
Weather at : KERI - Erie Intl/Tom Ridge Field ( 11 km )
METAR: KERI 131851Z 31007KT 10SM SCT070 BKN090 24/18 A2986 RMK AO2 SLP108 T02440178
TAF: KERI 131734Z 1318/1418 34007KT P6SM FEW250 FM140200 VRB03KT P6SM SCT250 FM141500 30005KT P6SM VCSH BKN035
View NOTAMs / SUP AIP / TFR affecting this airport [VIEW]
Communications frequencies: [VIEW]

Runways:

RWY identifierQFULength (ft)Width (ft)SurfaceLDA (ft)
0764°1264110GRASS
25244°1264110GRASS

Airport contact information

Address: Erie United States

Satellite view of 03G